sensor_id;sensor_type;location;lat;lon;timestamp;temperature;humidity
55091;DHT22;40985;53.180;5.800;2023-04-01T00:00:58;9.40;99.90
55091;DHT22;40985;53.180;5.800;2023-04-01T00:03:24;9.40;99.90
55091;DHT22;40985;53.180;5.800;2023-04-01T00:05:51;9.30;99.90
55091;DHT22;40985;53.180;5.800;2023-04-01T00:08:16;9.30;99.90
55091;DHT22;40985;53.180;5.800;2023-04-01T00:10:43;9.30;99.90
55091;DHT22;40985;53.180;5.800;2023-04-01T00:13:09;9.30;99.90
55091;DHT22;40985;53.180;5.800;2023-04-01T00:15:35;9.40;99.90
55091;DHT22;40985;53.180;5.800;2023-04-01T00:18:01;9.30;99.90
55091;DHT22;40985;53.180;5.800;2023-04-01T00:20:28;9.30;99.90
55091;DHT22;40985;53.180;5.800;2023-04-01T00:22:53;9.30;99.90
55091;DHT22;40985;53.180;5.800;2023-04-01T00:25:20;9.30;99.90
55091;DHT22;40985;53.180;5.800;2023-04-01T00:27:46;9.30;99.90
55091;DHT22;40985;53.180;5.800;2023-04-01T00:30:12;9.30;99.90
55091;DHT22;40985;53.180;5.800;2023-04-01T00:32:38;9.20;99.90
55091;DHT22;40985;53.180;5.800;2023-04-01T00:35:06;9.40;99.90
55091;DHT22;40985;53.180;5.800;2023-04-01T00:37:35;9.30;99.90
55091;DHT22;40985;53.180;5.800;2023-04-01T00:40:01;9.40;99.90
55091;DHT22;40985;53.180;5.800;2023-04-01T00:42:26;9.30;99.90
55091;DHT22;40985;53.180;5.800;2023-04-01T00:44:54;9.20;99.90
55091;DHT22;40985;53.180;5.800;2023-04-01T00:47:21;9.20;99.90
55091;DHT22;40985;53.180;5.800;2023-04-01T00:49:51;9.30;99.90
55091;DHT22;40985;53.180;5.800;2023-04-01T00:52:21;9.30;99.90
55091;DHT22;40985;53.180;5.800;2023-04-01T00:54:51;9.20;99.90
55091;DHT22;40985;53.180;5.800;2023-04-01T00:57:28;9.20;99.90
55091;DHT22;40985;53.180;5.800;2023-04-01T00:59:55;9.20;99.90
55091;DHT22;40985;53.180;5.800;2023-04-01T01:02:21;9.30;99.90
55091;DHT22;40985;53.180;5.800;2023-04-01T01:04:47;9.10;99.90
55091;DHT22;40985;53.180;5.800;2023-04-01T01:07:50;9.30;99.90
55091;DHT22;40985;53.180;5.800;2023-04-01T01:10:26;9.30;99.90
55091;DHT22;40985;53.180;5.800;2023-04-01T01:13:07;9.10;99.90
55091;DHT22;40985;53.180;5.800;2023-04-01T01:15:42;9.10;99.90
55091;DHT22;40985;53.180;5.800;2023-04-01T01:24:17;9.10;99.90
55091;DHT22;40985;53.180;5.800;2023-04-01T01:27:07;9.00;99.90
55091;DHT22;40985;53.180;5.800;2023-04-01T01:29:59;9.10;99.90
55091;DHT22;40985;53.180;5.800;2023-04-01T01:37:55;9.10;99.90
55091;DHT22;40985;53.180;5.800;2023-04-01T01:40:22;9.00;99.90
55091;DHT22;40985;53.180;5.800;2023-04-01T01:42:54;9.10;99.90
55091;DHT22;40985;53.180;5.800;2023-04-01T01:45:23;9.20;99.90
55091;DHT22;40985;53.180;5.800;2023-04-01T01:47:51;9.10;99.90
55091;DHT22;40985;53.180;5.800;2023-04-01T01:50:17;9.20;99.90
55091;DHT22;40985;53.180;5.800;2023-04-01T01:52:44;9.00;99.90
55091;DHT22;40985;53.180;5.800;2023-04-01T01:55:34;9.20;99.90
55091;DHT22;40985;53.180;5.800;2023-04-01T02:00:39;9.20;99.90
55091;DHT22;40985;53.180;5.800;2023-04-01T02:03:06;9.20;99.90
55091;DHT22;40985;53.180;5.800;2023-04-01T02:05:32;9.20;99.90
55091;DHT22;40985;53.180;5.800;2023-04-01T02:08:20;9.30;99.90
55091;DHT22;40985;53.180;5.800;2023-04-01T02:10:56;9.20;99.90
55091;DHT22;40985;53.180;5.800;2023-04-01T02:13:38;9.10;99.90
55091;DHT22;40985;53.180;5.800;2023-04-01T02:16:20;9.20;99.90
55091;DHT22;40985;53.180;5.800;2023-04-01T02:18:50;9.30;99.90
55091;DHT22;40985;53.180;5.800;2023-04-01T02:21:20;9.10;99.90
55091;DHT22;40985;53.180;5.800;2023-04-01T02:23:47;9.10;99.90
55091;DHT22;40985;53.180;5.800;2023-04-01T02:26:14;9.10;99.90
55091;DHT22;40985;53.180;5.800;2023-04-01T02:28:41;9.30;99.90
55091;DHT22;40985;53.180;5.800;2023-04-01T02:31:12;9.10;99.90
55091;DHT22;40985;53.180;5.800;2023-04-01T02:33:39;9.30;99.90
55091;DHT22;40985;53.180;5.800;2023-04-01T02:36:05;9.30;99.90
55091;DHT22;40985;53.180;5.800;2023-04-01T02:38:35;9.10;99.90
55091;DHT22;40985;53.180;5.800;2023-04-01T02:41:02;9.10;99.90
55091;DHT22;40985;53.180;5.800;2023-04-01T02:43:28;9.20;99.90
55091;DHT22;40985;53.180;5.800;2023-04-01T02:45:54;9.10;99.90
55091;DHT22;40985;53.180;5.800;2023-04-01T02:48:20;9.30;99.90
55091;DHT22;40985;53.180;5.800;2023-04-01T02:50:46;9.10;99.90
55091;DHT22;40985;53.180;5.800;2023-04-01T02:53:15;9.10;99.90
55091;DHT22;40985;53.180;5.800;2023-04-01T02:55:41;9.20;99.90
55091;DHT22;40985;53.180;5.800;2023-04-01T02:58:07;9.10;99.90
55091;DHT22;40985;53.180;5.800;2023-04-01T03:00:32;9.30;99.90
55091;DHT22;40985;53.180;5.800;2023-04-01T03:02:58;9.20;99.90
55091;DHT22;40985;53.180;5.800;2023-04-01T03:05:24;9.10;99.90
55091;DHT22;40985;53.180;5.800;2023-04-01T03:07:50;9.30;99.90
55091;DHT22;40985;53.180;5.800;2023-04-01T03:10:16;9.30;99.90
55091;DHT22;40985;53.180;5.800;2023-04-01T03:12:42;9.10;99.90
55091;DHT22;40985;53.180;5.800;2023-04-01T03:15:10;9.30;99.90
55091;DHT22;40985;53.180;5.800;2023-04-01T03:17:38;9.10;99.90
55091;DHT22;40985;53.180;5.800;2023-04-01T03:20:04;9.10;99.90
55091;DHT22;40985;53.180;5.800;2023-04-01T03:22:30;9.30;99.90
55091;DHT22;40985;53.180;5.800;2023-04-01T03:24:56;9.10;99.90
55091;DHT22;40985;53.180;5.800;2023-04-01T03:27:22;9.20;99.90
55091;DHT22;40985;53.180;5.800;2023-04-01T03:29:48;9.30;99.90
55091;DHT22;40985;53.180;5.800;2023-04-01T03:32:14;9.10;99.90
55091;DHT22;40985;53.180;5.800;2023-04-01T03:34:40;9.20;99.90
55091;DHT22;40985;53.180;5.800;2023-04-01T03:37:06;9.10;99.90
55091;DHT22;40985;53.180;5.800;2023-04-01T03:39:31;9.30;99.90
55091;DHT22;40985;53.180;5.800;2023-04-01T03:41:57;9.10;99.90
55091;DHT22;40985;53.180;5.800;2023-04-01T03:44:23;9.30;99.90
55091;DHT22;40985;53.180;5.800;2023-04-01T03:46:49;9.10;99.90
55091;DHT22;40985;53.180;5.800;2023-04-01T03:49:15;9.20;99.90
55091;DHT22;40985;53.180;5.800;2023-04-01T03:51:42;9.20;99.90
55091;DHT22;40985;53.180;5.800;2023-04-01T03:54:09;9.30;99.90
55091;DHT22;40985;53.180;5.800;2023-04-01T03:56:35;9.10;99.90
55091;DHT22;40985;53.180;5.800;2023-04-01T03:59:05;9.30;99.90
55091;DHT22;40985;53.180;5.800;2023-04-01T04:01:31;9.10;99.90
55091;DHT22;40985;53.180;5.800;2023-04-01T04:03:57;9.00;99.90
55091;DHT22;40985;53.180;5.800;2023-04-01T04:06:23;9.10;99.90
55091;DHT22;40985;53.180;5.800;2023-04-01T04:08:50;9.10;99.90
55091;DHT22;40985;53.180;5.800;2023-04-01T04:11:16;9.20;99.90
55091;DHT22;40985;53.180;5.800;2023-04-01T04:13:42;9.10;99.90
55091;DHT22;40985;53.180;5.800;2023-04-01T04:16:09;9.20;99.90
55091;DHT22;40985;53.180;5.800;2023-04-01T04:18:36;9.00;99.90
55091;DHT22;40985;53.180;5.800;2023-04-01T04:21:02;9.20;99.90
55091;DHT22;40985;53.180;5.800;2023-04-01T04:23:28;9.10;99.90
55091;DHT22;40985;53.180;5.800;2023-04-01T04:26:06;9.00;99.90
55091;DHT22;40985;53.180;5.800;2023-04-01T04:28:32;9.10;99.90
55091;DHT22;40985;53.180;5.800;2023-04-01T04:30:58;9.00;99.90
55091;DHT22;40985;53.180;5.800;2023-04-01T04:33:24;9.10;99.90
55091;DHT22;40985;53.180;5.800;2023-04-01T04:35:51;9.10;99.90
55091;DHT22;40985;53.180;5.800;2023-04-01T04:38:17;9.10;99.90
55091;DHT22;40985;53.180;5.800;2023-04-01T04:40:43;9.20;99.90
55091;DHT22;40985;53.180;5.800;2023-04-01T04:43:13;9.00;99.90
55091;DHT22;40985;53.180;5.800;2023-04-01T04:45:40;9.30;99.90
55091;DHT22;40985;53.180;5.800;2023-04-01T04:48:08;9.20;99.90
55091;DHT22;40985;53.180;5.800;2023-04-01T04:50:34;9.00;99.90
55091;DHT22;40985;53.180;5.800;2023-04-01T04:53:00;9.20;99.90
55091;DHT22;40985;53.180;5.800;2023-04-01T04:55:26;9.10;99.90
55091;DHT22;40985;53.180;5.800;2023-04-01T04:57:52;9.20;99.90
55091;DHT22;40985;53.180;5.800;2023-04-01T05:00:18;9.20;99.90
55091;DHT22;40985;53.180;5.800;2023-04-01T05:02:44;9.30;99.90
55091;DHT22;40985;53.180;5.800;2023-04-01T05:05:09;9.10;99.90
55091;DHT22;40985;53.180;5.800;2023-04-01T05:07:36;9.20;99.90
55091;DHT22;40985;53.180;5.800;2023-04-01T05:10:02;9.30;99.90
55091;DHT22;40985;53.180;5.800;2023-04-01T05:12:27;9.30;99.90
55091;DHT22;40985;53.180;5.800;2023-04-01T05:14:54;9.20;99.90
55091;DHT22;40985;53.180;5.800;2023-04-01T05:17:20;9.10;99.90
55091;DHT22;40985;53.180;5.800;2023-04-01T05:19:46;9.00;99.90
55091;DHT22;40985;53.180;5.800;2023-04-01T05:22:11;9.20;99.90
55091;DHT22;40985;53.180;5.800;2023-04-01T05:24:37;9.20;99.90
55091;DHT22;40985;53.180;5.800;2023-04-01T05:27:03;9.10;99.90
55091;DHT22;40985;53.180;5.800;2023-04-01T05:29:28;9.10;99.90
55091;DHT22;40985;53.180;5.800;2023-04-01T05:31:54;9.10;99.90
55091;DHT22;40985;53.180;5.800;2023-04-01T05:34:20;9.10;99.90
55091;DHT22;40985;53.180;5.800;2023-04-01T05:36:46;9.10;99.90
55091;DHT22;40985;53.180;5.800;2023-04-01T05:39:15;9.20;99.90
55091;DHT22;40985;53.180;5.800;2023-04-01T05:41:41;9.20;99.90
55091;DHT22;40985;53.180;5.800;2023-04-01T05:44:06;9.20;99.90
55091;DHT22;40985;53.180;5.800;2023-04-01T05:46:32;9.10;99.90
55091;DHT22;40985;53.180;5.800;2023-04-01T05:48:58;9.10;99.90
55091;DHT22;40985;53.180;5.800;2023-04-01T05:51:23;9.30;99.90
55091;DHT22;40985;53.180;5.800;2023-04-01T05:53:49;9.30;99.90
55091;DHT22;40985;53.180;5.800;2023-04-01T05:56:15;9.30;99.90
55091;DHT22;40985;53.180;5.800;2023-04-01T05:58:41;9.10;99.90
55091;DHT22;40985;53.180;5.800;2023-04-01T06:01:09;9.10;99.90
55091;DHT22;40985;53.180;5.800;2023-04-01T06:03:35;9.10;99.90
55091;DHT22;40985;53.180;5.800;2023-04-01T06:06:02;9.20;99.90
55091;DHT22;40985;53.180;5.800;2023-04-01T06:08:30;9.10;99.90
55091;DHT22;40985;53.180;5.800;2023-04-01T06:17:12;9.10;99.90
55091;DHT22;40985;53.180;5.800;2023-04-01T06:28:50;9.10;99.90
55091;DHT22;40985;53.180;5.800;2023-04-01T06:34:29;9.20;99.90
55091;DHT22;40985;53.180;5.800;2023-04-01T06:45:59;9.30;99.90
55091;DHT22;40985;53.180;5.800;2023-04-01T06:51:30;9.30;99.90
55091;DHT22;40985;53.180;5.800;2023-04-01T06:54:21;9.30;99.90
55091;DHT22;40985;53.180;5.800;2023-04-01T06:56:54;9.30;99.90
55091;DHT22;40985;53.180;5.800;2023-04-01T06:59:25;9.30;99.90
55091;DHT22;40985;53.180;5.800;2023-04-01T07:02:05;9.30;99.90
55091;DHT22;40985;53.180;5.800;2023-04-01T07:04:44;9.40;99.90
55091;DHT22;40985;53.180;5.800;2023-04-01T07:07:35;9.40;99.90
55091;DHT22;40985;53.180;5.800;2023-04-01T07:13:04;9.50;99.90
55091;DHT22;40985;53.180;5.800;2023-04-01T07:15:38;9.40;99.90
55091;DHT22;40985;53.180;5.800;2023-04-01T07:18:16;9.40;99.90
55091;DHT22;40985;53.180;5.800;2023-04-01T07:20:43;9.30;99.90
55091;DHT22;40985;53.180;5.800;2023-04-01T07:23:32;9.50;99.90
55091;DHT22;40985;53.180;5.800;2023-04-01T07:26:21;9.50;99.90
55091;DHT22;40985;53.180;5.800;2023-04-01T07:28:48;9.40;99.90
55091;DHT22;40985;53.180;5.800;2023-04-01T07:31:27;9.40;99.90
55091;DHT22;40985;53.180;5.800;2023-04-01T07:34:09;9.50;99.90
55091;DHT22;40985;53.180;5.800;2023-04-01T07:37:00;9.40;99.90
55091;DHT22;40985;53.180;5.800;2023-04-01T07:50:29;9.70;99.90
55091;DHT22;40985;53.180;5.800;2023-04-01T07:56:25;9.80;99.90
55091;DHT22;40985;53.180;5.800;2023-04-01T08:07:30;9.90;99.90
55091;DHT22;40985;53.180;5.800;2023-04-01T08:15:32;10.10;99.90
55091;DHT22;40985;53.180;5.800;2023-04-01T08:18:11;10.10;99.90
55091;DHT22;40985;53.180;5.800;2023-04-01T08:21:03;10.10;99.90
55091;DHT22;40985;53.180;5.800;2023-04-01T08:23:36;10.10;99.90
55091;DHT22;40985;53.180;5.800;2023-04-01T08:26:08;10.10;99.90
55091;DHT22;40985;53.180;5.800;2023-04-01T08:29:00;9.90;99.90
55091;DHT22;40985;53.180;5.800;2023-04-01T08:34:03;9.80;99.90
55091;DHT22;40985;53.180;5.800;2023-04-01T08:36:38;9.80;99.90
55091;DHT22;40985;53.180;5.800;2023-04-01T08:39:12;10.70;99.90
55091;DHT22;40985;53.180;5.800;2023-04-01T08:57:45;10.00;99.90
55091;DHT22;40985;53.180;5.800;2023-04-01T09:00:46;10.20;99.90
55091;DHT22;40985;53.180;5.800;2023-04-01T09:17:41;10.40;99.90
55091;DHT22;40985;53.180;5.800;2023-04-01T09:20:33;10.40;99.90
55091;DHT22;40985;53.180;5.800;2023-04-01T09:31:25;10.50;99.90
55091;DHT22;40985;53.180;5.800;2023-04-01T09:36:49;10.60;99.90
55091;DHT22;40985;53.180;5.800;2023-04-01T09:39:36;10.40;99.90
55091;DHT22;40985;53.180;5.800;2023-04-01T09:51:03;10.30;99.90
55091;DHT22;40985;53.180;5.800;2023-04-01T09:54:33;10.30;99.90
55091;DHT22;40985;53.180;5.800;2023-04-01T10:02:38;10.60;99.90
55091;DHT22;40985;53.180;5.800;2023-04-01T10:08:48;10.50;99.90
55091;DHT22;40985;53.180;5.800;2023-04-01T10:36:53;9.80;99.90
55091;DHT22;40985;53.180;5.800;2023-04-01T10:39:46;9.70;99.90
55091;DHT22;40985;53.180;5.800;2023-04-01T10:42:35;9.60;99.90
55091;DHT22;40985;53.180;5.800;2023-04-01T10:51:01;9.70;99.90
55091;DHT22;40985;53.180;5.800;2023-04-01T11:10:41;9.90;99.90
55091;DHT22;40985;53.180;5.800;2023-04-01T11:19:09;9.90;99.90
55091;DHT22;40985;53.180;5.800;2023-04-01T11:22:07;9.80;99.90
55091;DHT22;40985;53.180;5.800;2023-04-01T11:33:02;9.80;99.90
55091;DHT22;40985;53.180;5.800;2023-04-01T11:35:53;9.70;99.90
55091;DHT22;40985;53.180;5.800;2023-04-01T11:41:13;9.90;99.90
55091;DHT22;40985;53.180;5.800;2023-04-01T11:46:48;10.10;99.90
55091;DHT22;40985;53.180;5.800;2023-04-01T11:57:55;10.10;99.90
55091;DHT22;40985;53.180;5.800;2023-04-01T12:08:50;10.30;99.90
55091;DHT22;40985;53.180;5.800;2023-04-01T12:42:07;9.80;99.90
55091;DHT22;40985;53.180;5.800;2023-04-01T12:47:32;9.80;99.90
55091;DHT22;40985;53.180;5.800;2023-04-01T12:55:45;9.70;99.90
55091;DHT22;40985;53.180;5.800;2023-04-01T13:17:34;9.50;99.90
55091;DHT22;40985;53.180;5.800;2023-04-01T13:34:02;9.30;99.90
55091;DHT22;40985;53.180;5.800;2023-04-01T13:39:31;9.10;99.90
55091;DHT22;40985;53.180;5.800;2023-04-01T13:42:35;9.10;99.90
55091;DHT22;40985;53.180;5.800;2023-04-01T13:45:19;9.00;99.90
55091;DHT22;40985;53.180;5.800;2023-04-01T14:24:32;8.90;99.90
55091;DHT22;40985;53.180;5.800;2023-04-01T14:35:16;8.80;99.90
55091;DHT22;40985;53.180;5.800;2023-04-01T14:37:58;8.80;99.90
55091;DHT22;40985;53.180;5.800;2023-04-01T14:41:17;8.80;99.90
55091;DHT22;40985;53.180;5.800;2023-04-01T14:44:10;8.80;99.90
55091;DHT22;40985;53.180;5.800;2023-04-01T14:49:43;8.80;99.90
55091;DHT22;40985;53.180;5.800;2023-04-01T14:52:32;8.70;99.90
55091;DHT22;40985;53.180;5.800;2023-04-01T14:55:00;8.60;99.90
55091;DHT22;40985;53.180;5.800;2023-04-01T14:57:34;8.60;99.90
55091;DHT22;40985;53.180;5.800;2023-04-01T15:00:17;8.50;99.90
55091;DHT22;40985;53.180;5.800;2023-04-01T15:05:49;8.40;99.90
55091;DHT22;40985;53.180;5.800;2023-04-01T15:11:11;8.40;99.90
55091;DHT22;40985;53.180;5.800;2023-04-01T15:13:54;8.30;99.90
55091;DHT22;40985;53.180;5.800;2023-04-01T15:16:41;8.30;99.90
55091;DHT22;40985;53.180;5.800;2023-04-01T15:28:34;8.10;99.90
55091;DHT22;40985;53.180;5.800;2023-04-01T15:30:34;8.10;99.90
55091;DHT22;40985;53.180;5.800;2023-04-01T15:33:09;7.90;99.90
55091;DHT22;40985;53.180;5.800;2023-04-01T15:35:49;7.80;99.90
55091;DHT22;40985;53.180;5.800;2023-04-01T15:43:45;7.70;99.90
55091;DHT22;40985;53.180;5.800;2023-04-01T15:49:05;7.70;99.90
55091;DHT22;40985;53.180;5.800;2023-04-01T15:57:09;7.60;99.90
55091;DHT22;40985;53.180;5.800;2023-04-01T16:08:49;7.50;99.90
55091;DHT22;40985;53.180;5.800;2023-04-01T16:14:40;7.40;99.90
55091;DHT22;40985;53.180;5.800;2023-04-01T16:17:35;7.50;99.90
55091;DHT22;40985;53.180;5.800;2023-04-01T16:20:22;7.50;99.90
55091;DHT22;40985;53.180;5.800;2023-04-01T16:23:10;7.50;99.90
55091;DHT22;40985;53.180;5.800;2023-04-01T16:25:43;7.60;99.90
55091;DHT22;40985;53.180;5.800;2023-04-01T16:34:19;7.40;99.90
55091;DHT22;40985;53.180;5.800;2023-04-01T16:39:44;7.20;99.90
55091;DHT22;40985;53.180;5.800;2023-04-01T16:42:40;7.20;99.90
55091;DHT22;40985;53.180;5.800;2023-04-01T16:45:15;7.10;99.90
55091;DHT22;40985;53.180;5.800;2023-04-01T16:47:56;7.10;99.90
55091;DHT22;40985;53.180;5.800;2023-04-01T16:56:24;6.80;99.90
55091;DHT22;40985;53.180;5.800;2023-04-01T16:59:03;6.80;99.90
55091;DHT22;40985;53.180;5.800;2023-04-01T17:01:54;6.70;99.90
55091;DHT22;40985;53.180;5.800;2023-04-01T17:10:28;6.70;99.90
55091;DHT22;40985;53.180;5.800;2023-04-01T17:22:02;6.70;99.90
55091;DHT22;40985;53.180;5.800;2023-04-01T17:27:37;6.60;99.90
55091;DHT22;40985;53.180;5.800;2023-04-01T17:41:53;6.50;99.90
55091;DHT22;40985;53.180;5.800;2023-04-01T17:47:22;6.40;99.90
55091;DHT22;40985;53.180;5.800;2023-04-01T17:58:19;6.40;99.90
55091;DHT22;40985;53.180;5.800;2023-04-01T18:01:15;6.30;99.90
55091;DHT22;40985;53.180;5.800;2023-04-01T18:12:31;6.30;99.90
55091;DHT22;40985;53.180;5.800;2023-04-01T18:17:40;6.20;99.90
55091;DHT22;40985;53.180;5.800;2023-04-01T18:20:47;6.20;99.90
55091;DHT22;40985;53.180;5.800;2023-04-01T18:25:48;6.20;99.90
55091;DHT22;40985;53.180;5.800;2023-04-01T18:31:20;6.20;99.90
55091;DHT22;40985;53.180;5.800;2023-04-01T18:34:28;6.10;99.90
55091;DHT22;40985;53.180;5.800;2023-04-01T18:36:50;6.10;99.90
55091;DHT22;40985;53.180;5.800;2023-04-01T18:39:18;6.10;99.90
55091;DHT22;40985;53.180;5.800;2023-04-01T18:45:02;6.20;99.90
55091;DHT22;40985;53.180;5.800;2023-04-01T18:47:42;6.20;99.90
55091;DHT22;40985;53.180;5.800;2023-04-01T18:50:21;6.10;99.90
55091;DHT22;40985;53.180;5.800;2023-04-01T19:01:05;6.00;99.90
55091;DHT22;40985;53.180;5.800;2023-04-01T19:09:24;6.00;99.90
55091;DHT22;40985;53.180;5.800;2023-04-01T19:12:20;5.90;99.90
55091;DHT22;40985;53.180;5.800;2023-04-01T19:15:02;5.90;99.90
55091;DHT22;40985;53.180;5.800;2023-04-01T19:20:29;5.90;99.90
55091;DHT22;40985;53.180;5.800;2023-04-01T19:30:58;5.80;99.90
55091;DHT22;40985;53.180;5.800;2023-04-01T19:38:58;5.70;99.90
55091;DHT22;40985;53.180;5.800;2023-04-01T19:41:50;5.70;99.90
55091;DHT22;40985;53.180;5.800;2023-04-01T19:52:31;5.70;99.90
55091;DHT22;40985;53.180;5.800;2023-04-01T19:55:28;5.60;99.90
55091;DHT22;40985;53.180;5.800;2023-04-01T19:58:18;5.60;99.90
55091;DHT22;40985;53.180;5.800;2023-04-01T20:00:52;5.60;99.90
55091;DHT22;40985;53.180;5.800;2023-04-01T20:14:56;5.50;99.90
55091;DHT22;40985;53.180;5.800;2023-04-01T20:25:30;5.40;99.90
55091;DHT22;40985;53.180;5.800;2023-04-01T20:28:21;5.40;99.90
55091;DHT22;40985;53.180;5.800;2023-04-01T20:31:21;5.40;99.90
55091;DHT22;40985;53.180;5.800;2023-04-01T20:39:57;5.30;99.90
55091;DHT22;40985;53.180;5.800;2023-04-01T20:50:52;5.30;99.90
55091;DHT22;40985;53.180;5.800;2023-04-01T20:59:16;5.30;99.90
55091;DHT22;40985;53.180;5.800;2023-04-01T21:11:10;5.20;99.90
55091;DHT22;40985;53.180;5.800;2023-04-01T21:26:19;5.20;99.90
55091;DHT22;40985;53.180;5.800;2023-04-01T21:32:19;5.20;99.90
55091;DHT22;40985;53.180;5.800;2023-04-01T21:37:44;5.20;99.90
55091;DHT22;40985;53.180;5.800;2023-04-01T22:05:42;4.80;99.90
55091;DHT22;40985;53.180;5.800;2023-04-01T22:11:43;4.70;99.90
55091;DHT22;40985;53.180;5.800;2023-04-01T22:14:31;4.70;99.90
55091;DHT22;40985;53.180;5.800;2023-04-01T22:17:03;4.70;99.90
55091;DHT22;40985;53.180;5.800;2023-04-01T22:25:33;4.70;99.90
55091;DHT22;40985;53.180;5.800;2023-04-01T22:28:07;4.70;99.90
55091;DHT22;40985;53.180;5.800;2023-04-01T22:31:00;4.60;99.90
55091;DHT22;40985;53.180;5.800;2023-04-01T22:36:13;4.70;99.90
55091;DHT22;40985;53.180;5.800;2023-04-01T22:44:03;4.60;99.90
55091;DHT22;40985;53.180;5.800;2023-04-01T22:46:36;4.60;99.90
55091;DHT22;40985;53.180;5.800;2023-04-01T22:54:39;4.50;99.90
55091;DHT22;40985;53.180;5.800;2023-04-01T22:57:16;4.50;99.90
55091;DHT22;40985;53.180;5.800;2023-04-01T23:02:28;4.40;99.90
55091;DHT22;40985;53.180;5.800;2023-04-01T23:04:58;4.40;99.90
55091;DHT22;40985;53.180;5.800;2023-04-01T23:10:49;4.30;99.90
55091;DHT22;40985;53.180;5.800;2023-04-01T23:13:22;4.30;99.90
55091;DHT22;40985;53.180;5.800;2023-04-01T23:15:52;4.20;99.90
55091;DHT22;40985;53.180;5.800;2023-04-01T23:21:46;4.10;99.90
55091;DHT22;40985;53.180;5.800;2023-04-01T23:24:30;4.00;99.90
55091;DHT22;40985;53.180;5.800;2023-04-01T23:27:11;4.00;99.90
55091;DHT22;40985;53.180;5.800;2023-04-01T23:29:39;3.90;99.90
55091;DHT22;40985;53.180;5.800;2023-04-01T23:32:18;3.90;99.90
55091;DHT22;40985;53.180;5.800;2023-04-01T23:34:52;3.80;99.90
55091;DHT22;40985;53.180;5.800;2023-04-01T23:37:20;3.70;99.90
55091;DHT22;40985;53.180;5.800;2023-04-01T23:39:57;3.70;99.90
55091;DHT22;40985;53.180;5.800;2023-04-01T23:42:31;3.70;99.90
55091;DHT22;40985;53.180;5.800;2023-04-01T23:45:11;3.70;99.90
55091;DHT22;40985;53.180;5.800;2023-04-01T23:47:39;3.60;99.90
55091;DHT22;40985;53.180;5.800;2023-04-01T23:52:43;3.60;99.90
55091;DHT22;40985;53.180;5.800;2023-04-01T23:55:23;3.50;99.90
